KDYB

Summerville Airport

Summerville, South Carolina, USA
METAR KDYB 122055Z AUTO 24003KT 10SM CLR 12/00 A3022 RMK AO1
Observed Flight Rules
Dec-12 @ 20:55 UTC (13 minutes ago) Visual Flight Rules
Wind Visibility Clouds
240° at 3 knots 10 miles
  • Clear skies
Temperatures Readings
Current 12°C / 54°F
Dewpoint 0°C / 32°F
Humidity 44%
Altimeter 30.22" Hg
Pressure 1023 hPa
Elevation 18
METAR KDYB 122055Z AUTO 24003KT 10SM CLR 12/00 A3022 RMK AO1
Observed Flight Rules
Dec-12 @ 20:55 UTC
(13 minutes ago)
VFR
Wind Visibility
240° at 3 knots 10 miles
Clouds
  • Clear skies
Temperature Dewpoint
12°C / 54°F 0°C / 32°F
Humidity Altimeter Pressure
44% 30.22" Hg 1023 hPa